Terminal Aerodrome Forecast
Issued by NWS

Home | Current Version | Previous Version | Text Only | Print | Product List | Glossary On
Versions: 1 2 3 4 5 6 7 8 9 10 11 12 13 14 15 16 17 18 19 20 21 22 23 24
000
FTUS43 KDMX 220526
TAFFOD
TAF
KFOD 220526Z 2206/2306 VRB04KT P6SM BKN100
     FM221000 09005KT 6SM -SN OVC035
     FM221700 10009KT 5SM -FZRASN OVC011
     FM222000 11009KT 3SM -FZDZ OVC007
     FM222200 12009KT 1 1/2SM -FZDZSN OVC006
     FM230100 13008KT 1SM -FZRA OVC007=

USA.gov is the U.S. government's official web portal to all federal, state and local government web resources and services.